Smithton, Pennsylvania
Current Conditions -  °F | °C
As of 7:07 AM on Monday 26 Jan 2015 (Local Time) from KAGC Reporting Station
Overcast Overcast  
Wind Chill: 25°   Ceiling: 500
Heat Index: 30°   Visibility: 7mi
Dew Point: 26°   Wind: 5mph
Humidity: 85%   Direction: NA
Pressure: 29.67"   Gusts: NA
Location:  40.15°N, 79.74°W
Report Text: KAGC 261207Z AUTO VRB04KT 7SM OVC005 M01/M03 A2967 RMK AO2 T10111033 TSNO
Loading
Personal Weather Stations






























Interactive Weather Map New forecast layout! Learn more

10-Day Weather Forecast

Advertisements
Track Severe Weather on mobile